sensor_id;sensor_type;location;lat;lon;timestamp;pressure;altitude;pressure_sealevel;temperature;humidity
26192;BME280;13935;55.672;37.764;2023-05-21T00:10:21;100760.88;;;12.47;100.00
26192;BME280;13935;55.672;37.764;2023-05-21T00:13:07;100753.59;;;12.68;100.00
26192;BME280;13935;55.672;37.764;2023-05-21T00:38:55;100741.75;;;12.09;100.00
26192;BME280;13935;55.672;37.764;2023-05-21T00:48:51;100748.03;;;12.06;100.00
26192;BME280;13935;55.672;37.764;2023-05-21T01:08:44;100758.72;;;12.04;100.00
26192;BME280;13935;55.672;37.764;2023-05-21T01:12:33;100762.66;;;12.03;100.00
26192;BME280;13935;55.672;37.764;2023-05-21T01:15:37;100765.53;;;12.10;100.00
26192;BME280;13935;55.672;37.764;2023-05-21T01:18:40;100761.00;;;11.99;100.00
26192;BME280;13935;55.672;37.764;2023-05-21T01:31:18;100766.53;;;11.99;100.00
26192;BME280;13935;55.672;37.764;2023-05-21T01:37:02;100765.97;;;12.12;100.00
26192;BME280;13935;55.672;37.764;2023-05-21T01:39:31;100763.50;;;12.07;100.00
26192;BME280;13935;55.672;37.764;2023-05-21T01:42:09;100761.88;;;12.06;100.00
26192;BME280;13935;55.672;37.764;2023-05-21T01:45:14;100767.44;;;12.06;100.00
26192;BME280;13935;55.672;37.764;2023-05-21T01:46:24;100770.00;;;12.18;100.00
26192;BME280;13935;55.672;37.764;2023-05-21T01:47:36;100766.00;;;12.15;100.00
26192;BME280;13935;55.672;37.764;2023-05-21T01:49:21;100760.78;;;12.10;100.00
26192;BME280;13935;55.672;37.764;2023-05-21T01:50:53;100761.09;;;12.06;100.00
26192;BME280;13935;55.672;37.764;2023-05-21T01:52:36;100764.41;;;12.14;100.00
26192;BME280;13935;55.672;37.764;2023-05-21T02:04:33;100763.75;;;12.24;100.00
26192;BME280;13935;55.672;37.764;2023-05-21T02:07:20;100762.34;;;12.37;100.00
26192;BME280;13935;55.672;37.764;2023-05-21T02:33:46;100759.28;;;12.16;100.00
26192;BME280;13935;55.672;37.764;2023-05-21T02:36:32;100763.13;;;12.38;100.00
26192;BME280;13935;55.672;37.764;2023-05-21T02:46:57;100760.03;;;12.43;100.00
26192;BME280;13935;55.672;37.764;2023-05-21T03:09:20;100762.09;;;12.49;100.00
26192;BME280;13935;55.672;37.764;2023-05-21T03:29:47;100769.44;;;12.64;100.00
26192;BME280;13935;55.672;37.764;2023-05-21T03:32:22;100762.69;;;12.65;100.00
26192;BME280;13935;55.672;37.764;2023-05-21T03:35:10;100771.22;;;12.50;100.00
26192;BME280;13935;55.672;37.764;2023-05-21T03:42:28;100762.28;;;12.34;100.00
26192;BME280;13935;55.672;37.764;2023-05-21T03:46:00;100768.28;;;12.36;100.00
26192;BME280;13935;55.672;37.764;2023-05-21T03:49:02;100774.91;;;12.28;100.00
26192;BME280;13935;55.672;37.764;2023-05-21T03:55:22;100780.53;;;12.35;100.00
26192;BME280;13935;55.672;37.764;2023-05-21T04:01:23;100771.44;;;12.38;100.00
26192;BME280;13935;55.672;37.764;2023-05-21T04:08:38;100772.84;;;12.54;100.00
26192;BME280;13935;55.672;37.764;2023-05-21T04:11:07;100766.44;;;12.47;100.00
26192;BME280;13935;55.672;37.764;2023-05-21T04:14:14;100772.56;;;12.30;100.00
26192;BME280;13935;55.672;37.764;2023-05-21T04:17:22;100769.53;;;12.42;100.00
26192;BME280;13935;55.672;37.764;2023-05-21T04:20:31;100772.16;;;12.61;100.00
26192;BME280;13935;55.672;37.764;2023-05-21T04:23:51;100762.44;;;12.77;100.00
26192;BME280;13935;55.672;37.764;2023-05-21T04:30:04;100756.44;;;13.04;100.00
26192;BME280;13935;55.672;37.764;2023-05-21T04:32:47;100755.78;;;12.85;100.00
26192;BME280;13935;55.672;37.764;2023-05-21T04:34:39;100755.97;;;12.99;100.00
26192;BME280;13935;55.672;37.764;2023-05-21T04:37:08;100759.69;;;13.13;100.00
26192;BME280;13935;55.672;37.764;2023-05-21T04:47:30;100754.16;;;13.17;100.00
26192;BME280;13935;55.672;37.764;2023-05-21T05:12:07;100756.69;;;13.79;100.00
26192;BME280;13935;55.672;37.764;2023-05-21T05:20:32;100756.00;;;13.96;100.00
26192;BME280;13935;55.672;37.764;2023-05-21T06:09:52;100745.81;;;17.70;100.00
26192;BME280;13935;55.672;37.764;2023-05-21T06:12:04;100753.03;;;18.08;100.00
26192;BME280;13935;55.672;37.764;2023-05-21T06:13:27;100743.31;;;18.23;100.00
26192;BME280;13935;55.672;37.764;2023-05-21T06:14:30;100742.13;;;18.17;100.00
26192;BME280;13935;55.672;37.764;2023-05-21T06:15:34;100734.53;;;18.14;100.00
26192;BME280;13935;55.672;37.764;2023-05-21T06:16:37;100743.22;;;18.93;100.00
26192;BME280;13935;55.672;37.764;2023-05-21T06:17:40;100735.22;;;18.91;100.00
26192;BME280;13935;55.672;37.764;2023-05-21T06:18:46;100731.75;;;19.63;100.00
26192;BME280;13935;55.672;37.764;2023-05-21T06:19:50;100731.84;;;19.03;100.00
26192;BME280;13935;55.672;37.764;2023-05-21T06:20:52;100732.75;;;18.34;100.00
26192;BME280;13935;55.672;37.764;2023-05-21T06:21:56;100728.75;;;18.35;100.00
26192;BME280;13935;55.672;37.764;2023-05-21T06:23:01;100725.56;;;17.92;100.00
26192;BME280;13935;55.672;37.764;2023-05-21T06:24:05;100732.13;;;17.25;100.00
26192;BME280;13935;55.672;37.764;2023-05-21T06:25:08;100737.66;;;16.71;100.00
26192;BME280;13935;55.672;37.764;2023-05-21T06:26:12;100730.03;;;16.75;100.00
26192;BME280;13935;55.672;37.764;2023-05-21T06:27:15;100736.84;;;16.74;100.00
26192;BME280;13935;55.672;37.764;2023-05-21T06:28:18;100740.59;;;16.29;100.00
26192;BME280;13935;55.672;37.764;2023-05-21T06:29:22;100744.19;;;16.19;100.00
26192;BME280;13935;55.672;37.764;2023-05-21T06:30:24;100747.75;;;16.44;100.00
26192;BME280;13935;55.672;37.764;2023-05-21T06:31:27;100738.19;;;16.38;100.00
26192;BME280;13935;55.672;37.764;2023-05-21T06:32:29;100738.63;;;16.09;100.00
26192;BME280;13935;55.672;37.764;2023-05-21T06:33:33;100748.56;;;16.34;100.00
26192;BME280;13935;55.672;37.764;2023-05-21T06:34:42;100739.72;;;16.53;100.00
26192;BME280;13935;55.672;37.764;2023-05-21T06:35:45;100750.88;;;16.53;100.00
26192;BME280;13935;55.672;37.764;2023-05-21T06:36:48;100745.19;;;16.81;100.00
26192;BME280;13935;55.672;37.764;2023-05-21T06:37:51;100750.38;;;16.79;100.00
26192;BME280;13935;55.672;37.764;2023-05-21T06:38:55;100745.66;;;16.69;100.00
26192;BME280;13935;55.672;37.764;2023-05-21T06:40:01;100741.38;;;16.40;100.00
26192;BME280;13935;55.672;37.764;2023-05-21T06:41:05;100750.00;;;16.77;100.00
26192;BME280;13935;55.672;37.764;2023-05-21T06:42:19;100748.38;;;16.83;100.00
26192;BME280;13935;55.672;37.764;2023-05-21T06:43:40;100744.09;;;16.54;100.00
26192;BME280;13935;55.672;37.764;2023-05-21T06:45:22;100744.13;;;16.50;100.00
26192;BME280;13935;55.672;37.764;2023-05-21T06:46:27;100743.56;;;16.87;100.00
26192;BME280;13935;55.672;37.764;2023-05-21T06:47:29;100745.38;;;16.43;100.00
26192;BME280;13935;55.672;37.764;2023-05-21T06:48:43;100746.94;;;16.43;100.00
26192;BME280;13935;55.672;37.764;2023-05-21T06:49:46;100740.50;;;16.57;100.00
26192;BME280;13935;55.672;37.764;2023-05-21T06:50:48;100740.13;;;16.48;100.00
26192;BME280;13935;55.672;37.764;2023-05-21T06:51:51;100737.59;;;16.78;100.00
26192;BME280;13935;55.672;37.764;2023-05-21T06:52:54;100738.13;;;17.30;100.00
26192;BME280;13935;55.672;37.764;2023-05-21T06:53:56;100736.94;;;17.21;100.00
26192;BME280;13935;55.672;37.764;2023-05-21T06:54:58;100732.94;;;18.83;100.00
26192;BME280;13935;55.672;37.764;2023-05-21T06:56:05;100734.00;;;19.22;94.33
26192;BME280;13935;55.672;37.764;2023-05-21T06:57:15;100732.66;;;19.79;89.78
26192;BME280;13935;55.672;37.764;2023-05-21T06:58:18;100734.41;;;19.96;91.36
26192;BME280;13935;55.672;37.764;2023-05-21T06:59:21;100734.22;;;21.39;82.09
26192;BME280;13935;55.672;37.764;2023-05-21T07:00:24;100731.94;;;20.40;79.45
26192;BME280;13935;55.672;37.764;2023-05-21T07:01:27;100720.97;;;20.26;84.12
26192;BME280;13935;55.672;37.764;2023-05-21T07:02:30;100730.19;;;21.55;78.98
26192;BME280;13935;55.672;37.764;2023-05-21T07:03:35;100737.72;;;21.27;76.48
26192;BME280;13935;55.672;37.764;2023-05-21T07:04:37;100732.78;;;21.15;74.03
26192;BME280;13935;55.672;37.764;2023-05-21T07:05:39;100733.28;;;19.67;84.49
26192;BME280;13935;55.672;37.764;2023-05-21T07:06:41;100728.31;;;19.52;88.90
26192;BME280;13935;55.672;37.764;2023-05-21T07:07:43;100728.19;;;19.36;88.26
26192;BME280;13935;55.672;37.764;2023-05-21T07:08:45;100740.28;;;18.73;88.83
26192;BME280;13935;55.672;37.764;2023-05-21T07:09:48;100731.06;;;18.73;92.34
26192;BME280;13935;55.672;37.764;2023-05-21T07:10:51;100728.66;;;19.01;90.62
26192;BME280;13935;55.672;37.764;2023-05-21T07:11:53;100731.47;;;19.01;91.02
26192;BME280;13935;55.672;37.764;2023-05-21T07:12:55;100733.81;;;20.27;83.58
26192;BME280;13935;55.672;37.764;2023-05-21T07:13:58;100731.47;;;20.65;78.10
26192;BME280;13935;55.672;37.764;2023-05-21T07:15:07;100735.91;;;22.00;71.81
26192;BME280;13935;55.672;37.764;2023-05-21T07:16:10;100726.31;;;20.40;73.69
26192;BME280;13935;55.672;37.764;2023-05-21T07:17:13;100732.09;;;19.88;81.70
26192;BME280;13935;55.672;37.764;2023-05-21T07:18:18;100727.28;;;19.42;84.55
26192;BME280;13935;55.672;37.764;2023-05-21T07:19:22;100731.84;;;19.33;86.67
26192;BME280;13935;55.672;37.764;2023-05-21T07:20:24;100735.72;;;19.16;86.22
26192;BME280;13935;55.672;37.764;2023-05-21T07:21:30;100741.97;;;18.67;88.73
26192;BME280;13935;55.672;37.764;2023-05-21T07:22:33;100734.34;;;18.35;91.50
26192;BME280;13935;55.672;37.764;2023-05-21T07:23:38;100743.88;;;17.60;98.20
26192;BME280;13935;55.672;37.764;2023-05-21T07:24:41;100733.25;;;17.85;99.61
26192;BME280;13935;55.672;37.764;2023-05-21T07:25:43;100737.69;;;17.83;99.16
26192;BME280;13935;55.672;37.764;2023-05-21T07:26:46;100737.50;;;17.60;100.00
26192;BME280;13935;55.672;37.764;2023-05-21T07:27:50;100741.56;;;17.48;100.00
26192;BME280;13935;55.672;37.764;2023-05-21T07:28:52;100750.03;;;17.41;100.00
26192;BME280;13935;55.672;37.764;2023-05-21T07:29:58;100742.50;;;17.31;100.00
26192;BME280;13935;55.672;37.764;2023-05-21T07:31:00;100743.03;;;17.67;100.00
26192;BME280;13935;55.672;37.764;2023-05-21T07:32:08;100743.56;;;17.51;100.00
26192;BME280;13935;55.672;37.764;2023-05-21T07:33:10;100742.38;;;17.92;100.00
26192;BME280;13935;55.672;37.764;2023-05-21T07:34:14;100749.63;;;17.39;100.00
26192;BME280;13935;55.672;37.764;2023-05-21T07:35:17;100735.06;;;17.62;100.00
26192;BME280;13935;55.672;37.764;2023-05-21T07:36:19;100735.53;;;17.53;100.00
26192;BME280;13935;55.672;37.764;2023-05-21T07:37:22;100741.75;;;17.20;100.00
26192;BME280;13935;55.672;37.764;2023-05-21T07:38:24;100737.16;;;17.51;100.00
26192;BME280;13935;55.672;37.764;2023-05-21T07:39:26;100737.53;;;17.56;100.00
26192;BME280;13935;55.672;37.764;2023-05-21T07:40:29;100734.16;;;17.75;100.00
26192;BME280;13935;55.672;37.764;2023-05-21T07:41:31;100732.75;;;17.50;100.00
26192;BME280;13935;55.672;37.764;2023-05-21T07:42:36;100735.22;;;17.44;100.00
26192;BME280;13935;55.672;37.764;2023-05-21T07:43:38;100735.97;;;17.48;100.00
26192;BME280;13935;55.672;37.764;2023-05-21T07:44:40;100738.44;;;17.39;100.00
26192;BME280;13935;55.672;37.764;2023-05-21T07:45:42;100735.97;;;17.48;100.00
26192;BME280;13935;55.672;37.764;2023-05-21T07:46:44;100736.88;;;17.35;100.00
26192;BME280;13935;55.672;37.764;2023-05-21T07:47:46;100733.13;;;17.55;100.00
26192;BME280;13935;55.672;37.764;2023-05-21T07:48:50;100731.56;;;18.64;95.46
26192;BME280;13935;55.672;37.764;2023-05-21T07:49:52;100737.13;;;17.98;98.24
26192;BME280;13935;55.672;37.764;2023-05-21T07:50:57;100727.56;;;17.95;98.27
26192;BME280;13935;55.672;37.764;2023-05-21T07:52:00;100736.00;;;17.92;99.22
26192;BME280;13935;55.672;37.764;2023-05-21T07:53:03;100732.81;;;17.43;98.25
26192;BME280;13935;55.672;37.764;2023-05-21T07:54:05;100728.34;;;17.96;95.81
26192;BME280;13935;55.672;37.764;2023-05-21T07:55:10;100729.13;;;18.00;95.66
26192;BME280;13935;55.672;37.764;2023-05-21T07:56:14;100731.47;;;18.05;96.52
26192;BME280;13935;55.672;37.764;2023-05-21T07:57:17;100729.06;;;17.63;98.03
26192;BME280;13935;55.672;37.764;2023-05-21T07:58:31;100736.97;;;17.75;97.79
26192;BME280;13935;55.672;37.764;2023-05-21T07:59:33;100748.03;;;17.42;99.25
26192;BME280;13935;55.672;37.764;2023-05-21T08:00:42;100740.75;;;17.51;100.00
26192;BME280;13935;55.672;37.764;2023-05-21T08:01:47;100724.56;;;17.22;100.00
26192;BME280;13935;55.672;37.764;2023-05-21T08:03:05;100739.00;;;17.68;99.77
26192;BME280;13935;55.672;37.764;2023-05-21T08:04:34;100735.56;;;17.93;97.30
26192;BME280;13935;55.672;37.764;2023-05-21T08:05:45;100740.31;;;18.00;96.31
26192;BME280;13935;55.672;37.764;2023-05-21T08:06:52;100732.94;;;18.16;95.59
26192;BME280;13935;55.672;37.764;2023-05-21T08:07:55;100745.00;;;18.10;96.25
26192;BME280;13935;55.672;37.764;2023-05-21T08:09:00;100754.16;;;17.74;91.77
26192;BME280;13935;55.672;37.764;2023-05-21T08:10:08;100737.28;;;17.81;93.16
26192;BME280;13935;55.672;37.764;2023-05-21T08:11:14;100754.31;;;18.00;89.97
26192;BME280;13935;55.672;37.764;2023-05-21T08:12:17;100737.66;;;18.26;87.40
26192;BME280;13935;55.672;37.764;2023-05-21T08:13:20;100749.50;;;18.41;85.91
26192;BME280;13935;55.672;37.764;2023-05-21T08:14:34;100747.47;;;18.45;85.83
26192;BME280;13935;55.672;37.764;2023-05-21T08:15:36;100758.66;;;18.78;83.00
26192;BME280;13935;55.672;37.764;2023-05-21T08:16:39;100753.75;;;18.85;79.09
26192;BME280;13935;55.672;37.764;2023-05-21T08:17:43;100752.50;;;19.69;77.51
26192;BME280;13935;55.672;37.764;2023-05-21T08:18:46;100749.28;;;19.44;76.27
26192;BME280;13935;55.672;37.764;2023-05-21T08:19:49;100745.09;;;19.33;77.33
26192;BME280;13935;55.672;37.764;2023-05-21T08:20:52;100736.06;;;18.88;79.29
26192;BME280;13935;55.672;37.764;2023-05-21T08:21:56;100741.88;;;18.74;82.60
26192;BME280;13935;55.672;37.764;2023-05-21T08:23:02;100741.06;;;19.04;82.13
26192;BME280;13935;55.672;37.764;2023-05-21T08:24:13;100734.81;;;19.49;77.84
26192;BME280;13935;55.672;37.764;2023-05-21T08:25:15;100732.38;;;19.74;75.38
26192;BME280;13935;55.672;37.764;2023-05-21T08:26:18;100739.69;;;20.13;76.85
26192;BME280;13935;55.672;37.764;2023-05-21T08:27:20;100738.72;;;19.55;77.18
26192;BME280;13935;55.672;37.764;2023-05-21T08:28:22;100748.97;;;18.82;80.54
26192;BME280;13935;55.672;37.764;2023-05-21T08:29:28;100733.78;;;18.80;82.99
26192;BME280;13935;55.672;37.764;2023-05-21T08:30:30;100736.88;;;18.89;83.37
26192;BME280;13935;55.672;37.764;2023-05-21T08:31:37;100731.94;;;19.26;80.16
26192;BME280;13935;55.672;37.764;2023-05-21T08:32:41;100728.41;;;19.71;78.73
26192;BME280;13935;55.672;37.764;2023-05-21T08:33:51;100733.66;;;18.90;79.56
26192;BME280;13935;55.672;37.764;2023-05-21T08:35:01;100730.72;;;20.61;75.19
26192;BME280;13935;55.672;37.764;2023-05-21T08:36:23;100734.13;;;20.91;68.36
26192;BME280;13935;55.672;37.764;2023-05-21T08:37:32;100731.38;;;20.87;68.20
26192;BME280;13935;55.672;37.764;2023-05-21T08:38:43;100728.63;;;21.55;65.37
26192;BME280;13935;55.672;37.764;2023-05-21T08:39:49;100731.66;;;22.08;63.18
26192;BME280;13935;55.672;37.764;2023-05-21T08:40:54;100738.56;;;21.08;66.24
26192;BME280;13935;55.672;37.764;2023-05-21T08:42:23;100730.25;;;20.85;62.88
26192;BME280;13935;55.672;37.764;2023-05-21T08:43:38;100731.44;;;21.70;61.22
26192;BME280;13935;55.672;37.764;2023-05-21T08:44:42;100734.38;;;22.11;58.78
26192;BME280;13935;55.672;37.764;2023-05-21T08:45:53;100738.25;;;22.17;56.50
26192;BME280;13935;55.672;37.764;2023-05-21T08:47:01;100724.00;;;22.08;55.55
26192;BME280;13935;55.672;37.764;2023-05-21T08:48:09;100728.88;;;22.64;53.51
26192;BME280;13935;55.672;37.764;2023-05-21T08:49:16;100742.25;;;22.48;53.36
26192;BME280;13935;55.672;37.764;2023-05-21T08:50:19;100727.69;;;22.78;52.65
26192;BME280;13935;55.672;37.764;2023-05-21T08:51:22;100729.41;;;22.47;53.63
26192;BME280;13935;55.672;37.764;2023-05-21T08:52:26;100729.72;;;22.90;51.31
26192;BME280;13935;55.672;37.764;2023-05-21T08:53:28;100727.84;;;22.30;53.23
26192;BME280;13935;55.672;37.764;2023-05-21T08:54:32;100725.56;;;22.94;50.58
26192;BME280;13935;55.672;37.764;2023-05-21T08:55:36;100730.97;;;22.89;49.09
26192;BME280;13935;55.672;37.764;2023-05-21T08:56:40;100740.00;;;22.96;49.75
26192;BME280;13935;55.672;37.764;2023-05-21T08:57:49;100730.97;;;22.89;50.37
26192;BME280;13935;55.672;37.764;2023-05-21T08:58:59;100736.00;;;22.69;49.41
26192;BME280;13935;55.672;37.764;2023-05-21T09:00:07;100740.41;;;22.41;50.29
26192;BME280;13935;55.672;37.764;2023-05-21T09:01:10;100741.53;;;22.60;50.25
26192;BME280;13935;55.672;37.764;2023-05-21T09:02:17;100735.81;;;22.47;49.33
26192;BME280;13935;55.672;37.764;2023-05-21T09:03:21;100738.38;;;22.14;48.47
26192;BME280;13935;55.672;37.764;2023-05-21T09:04:24;100740.75;;;22.72;48.78
26192;BME280;13935;55.672;37.764;2023-05-21T09:05:29;100744.09;;;22.10;48.20
26192;BME280;13935;55.672;37.764;2023-05-21T09:06:32;100730.31;;;21.68;50.56
26192;BME280;13935;55.672;37.764;2023-05-21T09:07:41;100726.59;;;21.71;52.32
26192;BME280;13935;55.672;37.764;2023-05-21T09:08:58;100746.09;;;20.95;52.12
26192;BME280;13935;55.672;37.764;2023-05-21T09:10:12;100737.44;;;20.47;55.27
26192;BME280;13935;55.672;37.764;2023-05-21T09:11:15;100738.97;;;20.52;54.96
26192;BME280;13935;55.672;37.764;2023-05-21T09:12:24;100744.59;;;20.09;55.01
26192;BME280;13935;55.672;37.764;2023-05-21T09:13:27;100737.28;;;20.54;52.75
26192;BME280;13935;55.672;37.764;2023-05-21T09:14:34;100732.72;;;20.21;53.09
26192;BME280;13935;55.672;37.764;2023-05-21T09:15:47;100737.66;;;19.91;53.60
26192;BME280;13935;55.672;37.764;2023-05-21T09:16:52;100736.28;;;20.03;54.65
26192;BME280;13935;55.672;37.764;2023-05-21T09:17:58;100733.09;;;19.78;52.03
26192;BME280;13935;55.672;37.764;2023-05-21T09:19:24;100738.06;;;19.70;53.52
26192;BME280;13935;55.672;37.764;2023-05-21T09:20:27;100730.03;;;19.46;54.84
26192;BME280;13935;55.672;37.764;2023-05-21T09:21:34;100720.25;;;19.01;59.22
26192;BME280;13935;55.672;37.764;2023-05-21T09:22:46;100733.91;;;19.29;59.65
26192;BME280;13935;55.672;37.764;2023-05-21T09:23:55;100723.88;;;19.54;60.02
26192;BME280;13935;55.672;37.764;2023-05-21T09:25:03;100722.09;;;19.64;58.72
26192;BME280;13935;55.672;37.764;2023-05-21T09:26:11;100729.31;;;19.65;57.56
26192;BME280;13935;55.672;37.764;2023-05-21T09:27:15;100729.22;;;19.19;59.44
26192;BME280;13935;55.672;37.764;2023-05-21T09:28:19;100726.72;;;18.98;59.12
26192;BME280;13935;55.672;37.764;2023-05-21T09:29:23;100734.16;;;19.12;57.50
26192;BME280;13935;55.672;37.764;2023-05-21T09:30:27;100742.84;;;19.47;56.65
26192;BME280;13935;55.672;37.764;2023-05-21T09:31:33;100733.69;;;19.89;56.64
26192;BME280;13935;55.672;37.764;2023-05-21T09:32:37;100747.97;;;19.52;57.88
26192;BME280;13935;55.672;37.764;2023-05-21T09:33:46;100737.84;;;19.05;60.46
26192;BME280;13935;55.672;37.764;2023-05-21T09:34:50;100730.84;;;18.90;61.69
26192;BME280;13935;55.672;37.764;2023-05-21T09:35:52;100724.75;;;18.95;61.72
26192;BME280;13935;55.672;37.764;2023-05-21T09:37:19;100737.88;;;18.75;60.65
26192;BME280;13935;55.672;37.764;2023-05-21T09:38:34;100736.94;;;18.85;61.55
26192;BME280;13935;55.672;37.764;2023-05-21T09:39:56;100742.47;;;18.26;64.40
26192;BME280;13935;55.672;37.764;2023-05-21T09:41:03;100737.16;;;18.35;68.26
26192;BME280;13935;55.672;37.764;2023-05-21T09:42:23;100733.25;;;18.59;68.65
26192;BME280;13935;55.672;37.764;2023-05-21T09:43:32;100738.38;;;18.34;71.10
26192;BME280;13935;55.672;37.764;2023-05-21T09:44:42;100730.47;;;18.59;70.12
26192;BME280;13935;55.672;37.764;2023-05-21T09:45:52;100743.19;;;18.33;72.35
26192;BME280;13935;55.672;37.764;2023-05-21T09:46:57;100739.59;;;17.89;68.35
26192;BME280;13935;55.672;37.764;2023-05-21T09:48:01;100743.56;;;17.95;72.57
26192;BME280;13935;55.672;37.764;2023-05-21T09:49:06;100730.03;;;17.87;74.87
26192;BME280;13935;55.672;37.764;2023-05-21T09:50:11;100745.88;;;18.03;74.60
26192;BME280;13935;55.672;37.764;2023-05-21T09:52:24;100746.22;;;17.65;71.63
26192;BME280;13935;55.672;37.764;2023-05-21T09:53:28;100740.56;;;17.72;73.14
26192;BME280;13935;55.672;37.764;2023-05-21T09:54:33;100732.47;;;17.85;73.28
26192;BME280;13935;55.672;37.764;2023-05-21T09:55:39;100735.91;;;17.99;72.64
26192;BME280;13935;55.672;37.764;2023-05-21T09:56:42;100734.69;;;18.03;71.13
26192;BME280;13935;55.672;37.764;2023-05-21T09:57:47;100737.91;;;17.98;72.27
26192;BME280;13935;55.672;37.764;2023-05-21T09:58:56;100741.03;;;17.67;70.21
26192;BME280;13935;55.672;37.764;2023-05-21T10:00:00;100735.25;;;17.88;70.70
26192;BME280;13935;55.672;37.764;2023-05-21T10:01:06;100741.47;;;17.62;70.08
26192;BME280;13935;55.672;37.764;2023-05-21T10:02:23;100733.53;;;17.57;69.97
26192;BME280;13935;55.672;37.764;2023-05-21T10:03:28;100740.53;;;17.76;69.94
26192;BME280;13935;55.672;37.764;2023-05-21T10:04:34;100738.78;;;17.92;68.98
26192;BME280;13935;55.672;37.764;2023-05-21T10:05:39;100740.34;;;17.96;68.25
26192;BME280;13935;55.672;37.764;2023-05-21T10:06:44;100741.13;;;17.97;67.42
26192;BME280;13935;55.672;37.764;2023-05-21T10:07:50;100741.78;;;18.11;67.31
26192;BME280;13935;55.672;37.764;2023-05-21T10:08:55;100734.84;;;18.26;67.00
26192;BME280;13935;55.672;37.764;2023-05-21T10:10:00;100738.75;;;18.36;66.06
26192;BME280;13935;55.672;37.764;2023-05-21T10:11:04;100732.97;;;18.13;67.05
26192;BME280;13935;55.672;37.764;2023-05-21T10:12:07;100732.53;;;18.18;66.55
26192;BME280;13935;55.672;37.764;2023-05-21T10:13:16;100735.09;;;18.39;66.48
26192;BME280;13935;55.672;37.764;2023-05-21T10:14:24;100734.06;;;18.26;67.18
26192;BME280;13935;55.672;37.764;2023-05-21T10:15:31;100734.75;;;18.37;66.80
26192;BME280;13935;55.672;37.764;2023-05-21T10:16:43;100732.69;;;18.41;67.75
26192;BME280;13935;55.672;37.764;2023-05-21T10:17:45;100739.19;;;18.34;67.62
26192;BME280;13935;55.672;37.764;2023-05-21T10:18:50;100738.47;;;18.23;69.23
26192;BME280;13935;55.672;37.764;2023-05-21T10:19:55;100741.22;;;18.30;68.30
26192;BME280;13935;55.672;37.764;2023-05-21T10:20:59;100737.88;;;18.42;67.87
26192;BME280;13935;55.672;37.764;2023-05-21T10:22:01;100736.25;;;18.45;70.03
26192;BME280;13935;55.672;37.764;2023-05-21T10:23:07;100727.13;;;18.37;68.59
26192;BME280;13935;55.672;37.764;2023-05-21T10:24:10;100740.63;;;18.46;68.88
26192;BME280;13935;55.672;37.764;2023-05-21T10:25:13;100741.75;;;18.52;68.37
26192;BME280;13935;55.672;37.764;2023-05-21T10:26:20;100736.53;;;18.54;68.12
26192;BME280;13935;55.672;37.764;2023-05-21T10:27:23;100739.47;;;18.43;69.06
26192;BME280;13935;55.672;37.764;2023-05-21T10:28:25;100728.81;;;18.61;68.73
26192;BME280;13935;55.672;37.764;2023-05-21T10:29:30;100744.38;;;18.65;69.25
26192;BME280;13935;55.672;37.764;2023-05-21T10:30:34;100741.97;;;18.67;68.75
26192;BME280;13935;55.672;37.764;2023-05-21T10:31:37;100738.25;;;18.44;71.89
26192;BME280;13935;55.672;37.764;2023-05-21T10:32:41;100737.63;;;18.30;72.27
26192;BME280;13935;55.672;37.764;2023-05-21T10:33:44;100743.66;;;18.62;73.09
26192;BME280;13935;55.672;37.764;2023-05-21T10:35:12;100742.63;;;18.78;72.86
26192;BME280;13935;55.672;37.764;2023-05-21T10:36:18;100742.06;;;18.61;70.55
26192;BME280;13935;55.672;37.764;2023-05-21T10:37:23;100747.66;;;18.90;69.55
26192;BME280;13935;55.672;37.764;2023-05-21T10:38:29;100753.00;;;18.81;70.53
26192;BME280;13935;55.672;37.764;2023-05-21T10:39:32;100740.50;;;18.86;71.07
26192;BME280;13935;55.672;37.764;2023-05-21T10:40:34;100746.19;;;19.12;71.33
26192;BME280;13935;55.672;37.764;2023-05-21T10:42:11;100739.41;;;19.36;68.33
26192;BME280;13935;55.672;37.764;2023-05-21T10:45:03;100743.13;;;19.00;67.71
26192;BME280;13935;55.672;37.764;2023-05-21T10:50:52;100738.44;;;18.93;66.08
26192;BME280;13935;55.672;37.764;2023-05-21T10:53:47;100746.78;;;18.34;64.49
26192;BME280;13935;55.672;37.764;2023-05-21T10:56:23;100743.84;;;18.44;62.00
26192;BME280;13935;55.672;37.764;2023-05-21T10:57:44;100739.75;;;18.52;64.84
26192;BME280;13935;55.672;37.764;2023-05-21T10:59:04;100742.75;;;18.68;65.37
26192;BME280;13935;55.672;37.764;2023-05-21T11:00:10;100749.09;;;18.75;67.79
26192;BME280;13935;55.672;37.764;2023-05-21T11:01:14;100741.63;;;18.92;68.38
26192;BME280;13935;55.672;37.764;2023-05-21T11:02:18;100742.50;;;18.89;69.08
26192;BME280;13935;55.672;37.764;2023-05-21T11:03:22;100755.34;;;18.86;71.34
26192;BME280;13935;55.672;37.764;2023-05-21T11:04:25;100747.88;;;19.06;68.19
26192;BME280;13935;55.672;37.764;2023-05-21T11:05:50;100745.25;;;18.92;68.53
26192;BME280;13935;55.672;37.764;2023-05-21T11:06:53;100752.69;;;18.76;67.98
26192;BME280;13935;55.672;37.764;2023-05-21T11:07:57;100757.28;;;18.89;67.96
26192;BME280;13935;55.672;37.764;2023-05-21T11:09:12;100747.03;;;19.09;67.11
26192;BME280;13935;55.672;37.764;2023-05-21T11:11:44;100751.50;;;18.73;68.93
26192;BME280;13935;55.672;37.764;2023-05-21T11:13:14;100744.22;;;18.79;69.38